Terminal Aerodrome Forecast
Issued by NWS

Home | Current Version | Previous Version | Text Only | Print | Product List | Glossary On
Versions: 1 2 3 4 5 6 7 8 9 10 11 12 13 14 15 16 17 18 19 20 21 22 23 24 25 26 27 28 29
000
FTUS46 KMTR 300900 AAA
TAFSFO
TAF AMD
KSFO 300945Z 3010/3112 29007KT P6SM SKC
     FM301400 29005KT P6SM SCT150
     FM302000 29015KT P6SM SCT200
     FM302200 28025G30KT P6SM SCT200
     FM310900 27014KT P6SM OVC050=

USA.gov is the U.S. government's official web portal to all federal, state and local government web resources and services.